Azwell, Washington
Current Conditions -  °F | °C
As of 10:22 PM on Thursday 30 Oct 2014 (Local Time) from KOMK Reporting Station
Light Rain Light Rain  
Wind Chill: 48°   Ceiling: 200
Heat Index: 48°   Visibility: 2mi
Dew Point: 47°   Wind: 0mph
Humidity: 96%   Direction: NA
Pressure: 29.85"   Gusts: NA
Location:  48.0966°N, 119.955°W
Report Text: KOMK 310522Z AUTO 00000KT 2SM -RA BR BKN002 OVC060 09/08 A2985 RMK AO2 P0000 T00890083
Loading
Personal Weather Stations






























Interactive Weather Map
Tropical Storm Tracking
New forecast layout! Learn more

10-Day Weather Forecast

Advertisements
Track Severe Weather on mobile